Time;durP1;ratioP1;P1;durP2;ratioP2;P2;SDS_P1;SDS_P2;PMS_P1;PMS_P2;Temp;Humidity;BMP_temperature;BMP_pressure;BME280_temperature;BME280_humidity;BME280_pressure;Samples;Min_cycle;Max_cycle;Signal;HPM_P1;HPM_P2
2022/01/02 00:00:13;;;;;;;10.50;4.80;;;11.00;99.90;;;;;;5061377;28;20194;-85
2022/01/02 00:02:42;;;;;;;7.05;4.63;;;11.10;99.90;;;;;;5059963;28;20595;-86
2022/01/02 00:05:10;;;;;;;5.07;4.60;;;11.10;99.90;;;;;;5060175;28;20189;-86
2022/01/02 00:07:43;;;;;;;10.47;5.93;;;11.10;99.90;;;;;;5060008;28;20209;-86
2022/01/02 00:10:12;;;;;;;6.32;4.53;;;11.10;99.90;;;;;;5060052;28;20667;-86
2022/01/02 00:12:44;;;;;;;5.73;4.50;;;11.10;99.90;;;;;;5059600;28;20186;-86
2022/01/02 00:15:12;;;;;;;7.22;4.32;;;11.10;99.90;;;;;;5059981;28;20231;-86
2022/01/02 00:17:38;;;;;;;6.10;4.90;;;11.10;99.90;;;;;;5059501;28;20203;-85
2022/01/02 00:20:11;;;;;;;6.73;4.40;;;11.10;99.90;;;;;;5059225;28;20189;-85
2022/01/02 00:22:40;;;;;;;8.27;4.32;;;11.10;99.90;;;;;;5059128;28;20236;-86
2022/01/02 00:25:16;;;;;;;5.93;4.60;;;11.10;99.90;;;;;;5059209;28;20182;-85
2022/01/02 00:27:43;;;;;;;7.95;4.75;;;11.20;99.90;;;;;;5059382;28;20752;-86
2022/01/02 00:30:09;;;;;;;5.03;4.45;;;11.20;99.90;;;;;;5060274;28;20206;-85
2022/01/02 00:32:37;;;;;;;5.83;4.50;;;11.40;99.90;;;;;;5058807;28;20589;-85
2022/01/02 00:35:04;;;;;;;8.00;4.13;;;11.50;99.90;;;;;;5058894;28;20240;-85
2022/01/02 00:37:29;;;;;;;4.38;3.97;;;11.60;99.90;;;;;;5059283;28;20290;-85
2022/01/02 00:39:55;;;;;;;4.85;4.32;;;11.60;99.90;;;;;;5059906;28;20236;-87
2022/01/02 00:42:34;;;;;;;6.30;4.67;;;11.60;99.90;;;;;;5060282;28;20174;-87
2022/01/02 00:45:11;;;;;;;5.50;4.43;;;11.60;99.90;;;;;;5059652;28;20312;-87
2022/01/02 00:48:24;;;;;;;8.80;4.57;;;11.60;99.90;;;;;;5060107;28;20198;-86
2022/01/02 00:50:52;;;;;;;5.47;4.57;;;11.60;99.90;;;;;;4983043;28;20275;-86
2022/01/02 00:53:22;;;;;;;7.05;4.40;;;11.60;99.90;;;;;;4983308;28;20219;-86
2022/01/02 00:55:54;;;;;;;7.00;4.90;;;11.50;99.90;;;;;;5031007;28;20237;-86
2022/01/02 00:58:22;;;;;;;6.70;4.67;;;11.50;99.90;;;;;;5075661;28;20190;-87
2022/01/02 01:00:50;;;;;;;5.90;4.60;;;11.60;99.90;;;;;;5059619;28;20251;-86
2022/01/02 01:03:26;;;;;;;5.68;4.40;;;11.50;99.90;;;;;;5057721;28;20523;-87
2022/01/02 01:05:54;;;;;;;6.47;4.50;;;11.40;99.90;;;;;;5058551;28;20198;-87
2022/01/02 01:08:22;;;;;;;7.70;4.90;;;11.40;99.90;;;;;;5059374;28;20174;-86
2022/01/02 01:10:48;;;;;;;7.73;4.93;;;11.40;99.90;;;;;;5059885;28;20304;-87
2022/01/02 01:13:14;;;;;;;5.45;4.70;;;11.40;99.90;;;;;;5059334;28;20249;-86
2022/01/02 01:15:41;;;;;;;5.57;4.40;;;11.50;99.90;;;;;;5061405;28;20191;-86
2022/01/02 01:18:07;;;;;;;6.13;4.88;;;11.40;99.90;;;;;;5060050;28;20174;-86
2022/01/02 01:20:37;;;;;;;6.47;5.00;;;11.40;99.90;;;;;;5060447;28;20250;-86
2022/01/02 01:23:03;;;;;;;5.97;4.80;;;11.40;99.90;;;;;;5060011;28;20171;-87
2022/01/02 01:25:29;;;;;;;7.07;4.63;;;11.40;99.90;;;;;;5059590;28;20194;-86
2022/01/02 01:27:55;;;;;;;5.10;4.57;;;11.40;99.90;;;;;;5059307;28;20174;-86
2022/01/02 01:30:24;;;;;;;6.88;4.65;;;11.40;99.90;;;;;;5058979;28;20202;-86
2022/01/02 01:32:50;;;;;;;8.17;4.57;;;11.40;99.90;;;;;;5059125;28;20227;-86
2022/01/02 01:35:16;;;;;;;7.70;5.13;;;11.40;99.90;;;;;;5059480;28;20261;-86
2022/01/02 01:37:41;;;;;;;7.30;4.90;;;11.30;99.90;;;;;;5058608;28;20198;-85
2022/01/02 01:40:10;;;;;;;7.30;4.70;;;11.40;99.90;;;;;;5057987;28;20186;-85
2022/01/02 01:42:40;;;;;;;8.47;5.10;;;11.30;99.90;;;;;;5057154;28;20186;-84
2022/01/02 01:47:48;;;;;;;8.30;5.03;;;11.30;99.90;;;;;;5058807;28;20259;-84
2022/01/02 01:50:14;;;;;;;7.65;4.90;;;11.30;99.90;;;;;;5056771;28;20208;-84
2022/01/02 01:52:41;;;;;;;6.27;5.33;;;11.30;99.90;;;;;;5056671;28;20170;-83
2022/01/02 01:55:07;;;;;;;6.77;4.83;;;11.30;99.90;;;;;;5056826;28;20182;-85
2022/01/02 01:57:33;;;;;;;4.97;4.40;;;11.30;99.90;;;;;;5056143;28;20194;-84
2022/01/02 02:00:03;;;;;;;9.80;4.85;;;11.30;99.90;;;;;;5056344;28;20328;-85
2022/01/02 02:02:29;;;;;;;6.15;4.65;;;11.30;99.90;;;;;;5057851;28;20519;-84
2022/01/02 02:04:54;;;;;;;5.15;4.13;;;11.30;99.90;;;;;;5056377;28;20189;-86
2022/01/02 02:07:27;;;;;;;6.00;4.82;;;11.30;99.90;;;;;;5058628;28;20201;-84
2022/01/02 02:12:42;;;;;;;9.13;4.70;;;11.30;99.90;;;;;;5059917;28;20169;-84
2022/01/02 02:15:09;;;;;;;9.18;4.95;;;11.30;99.90;;;;;;5060327;28;20186;-85
2022/01/02 02:17:37;;;;;;;6.20;4.60;;;11.30;99.90;;;;;;5055100;28;20615;-85
2022/01/02 02:20:17;;;;;;;6.47;4.63;;;11.30;99.90;;;;;;5054725;28;20200;-85
2022/01/02 02:22:46;;;;;;;5.70;4.60;;;11.30;99.90;;;;;;5055626;28;20182;-84
2022/01/02 02:25:14;;;;;;;7.73;4.63;;;11.30;99.90;;;;;;5053992;28;20174;-85
2022/01/02 02:27:40;;;;;;;5.70;4.27;;;11.40;99.90;;;;;;5056110;28;20232;-86
2022/01/02 02:30:06;;;;;;;5.13;4.30;;;11.30;99.90;;;;;;5056555;28;20181;-85
2022/01/02 02:32:33;;;;;;;5.47;4.65;;;11.30;99.90;;;;;;5056354;28;20181;-86
2022/01/02 02:34:58;;;;;;;7.32;4.70;;;11.30;99.90;;;;;;5059402;28;20174;-83
2022/01/02 02:37:25;;;;;;;7.37;4.43;;;11.30;99.90;;;;;;5056464;28;20190;-86
2022/01/02 02:39:52;;;;;;;6.57;4.23;;;11.30;99.90;;;;;;5055733;28;20175;-86
2022/01/02 02:42:39;;;;;;;6.10;4.50;;;11.30;99.90;;;;;;5056625;28;20210;-86
2022/01/02 02:50:48;;;;;;;7.95;4.65;;;11.40;99.90;;;;;;5057839;28;20244;-88
2022/01/02 02:53:15;;;;;;;5.78;4.47;;;11.40;99.90;;;;;;5055144;28;20181;-87
2022/01/02 02:55:45;;;;;;;7.30;4.47;;;11.40;99.90;;;;;;5054731;28;20194;-87
2022/01/02 02:58:57;;;;;;;7.07;4.47;;;11.40;99.90;;;;;;5056194;28;20198;-88
2022/01/02 03:01:02;;;;;;;7.13;4.50;;;11.40;99.90;;;;;;5049601;28;20198;-88
2022/01/02 03:03:28;;;;;;;10.38;4.70;;;11.50;99.90;;;;;;5056025;28;20265;-89
2022/01/02 03:05:54;;;;;;;5.65;4.60;;;11.50;99.90;;;;;;5054584;28;20266;-88
2022/01/02 03:08:20;;;;;;;8.05;4.88;;;11.50;99.90;;;;;;5055040;28;20672;-88
2022/01/02 03:10:45;;;;;;;5.32;4.32;;;11.50;99.90;;;;;;5055528;28;20297;-86
2022/01/02 03:13:11;;;;;;;7.78;4.00;;;11.50;99.90;;;;;;5054947;28;20178;-86
2022/01/02 03:15:37;;;;;;;6.10;4.22;;;11.50;99.90;;;;;;5055793;28;20624;-87
2022/01/02 03:18:04;;;;;;;5.07;4.17;;;11.50;99.90;;;;;;5057459;28;20232;-86
2022/01/02 03:20:29;;;;;;;7.50;4.20;;;11.50;99.90;;;;;;5056554;28;20183;-86
2022/01/02 03:22:55;;;;;;;6.80;4.43;;;11.50;99.90;;;;;;5056141;28;20189;-84
2022/01/02 03:25:21;;;;;;;8.97;4.67;;;11.50;99.90;;;;;;5058332;28;20591;-84
2022/01/02 03:27:47;;;;;;;10.15;4.70;;;11.50;99.90;;;;;;5056827;28;20553;-84
2022/01/02 03:30:13;;;;;;;6.17;4.43;;;11.50;99.90;;;;;;5057145;28;20202;-84
2022/01/02 03:32:40;;;;;;;5.83;4.53;;;11.50;99.90;;;;;;5056790;28;20191;-84
2022/01/02 03:35:07;;;;;;;11.05;4.53;;;11.50;99.90;;;;;;5057429;28;20529;-84
2022/01/02 03:37:33;;;;;;;5.65;4.15;;;11.50;99.90;;;;;;5060559;28;20289;-84
2022/01/02 03:40:01;;;;;;;7.53;4.63;;;11.50;99.90;;;;;;5060545;28;20175;-84
2022/01/02 03:42:27;;;;;;;8.43;4.43;;;11.50;99.90;;;;;;5060184;28;20167;-84
2022/01/02 03:44:52;;;;;;;8.88;4.45;;;11.50;99.90;;;;;;5061849;28;20196;-84
2022/01/02 03:47:18;;;;;;;6.47;4.27;;;11.50;99.90;;;;;;5061254;28;20199;-84
2022/01/02 03:49:44;;;;;;;7.55;4.15;;;11.50;99.90;;;;;;5059745;28;20182;-84
2022/01/02 03:52:10;;;;;;;8.65;4.90;;;11.50;99.90;;;;;;5060396;28;20206;-84
2022/01/02 03:54:36;;;;;;;7.47;4.63;;;11.50;99.90;;;;;;5061594;28;20245;-84
2022/01/02 03:57:01;;;;;;;6.22;4.00;;;11.50;99.90;;;;;;5060093;28;20697;-84
2022/01/02 03:59:27;;;;;;;5.37;4.17;;;11.50;99.90;;;;;;5060024;28;20179;-84
2022/01/02 04:01:53;;;;;;;6.50;4.60;;;11.50;99.90;;;;;;5060323;28;20261;-83
2022/01/02 04:04:19;;;;;;;7.25;4.53;;;11.50;99.90;;;;;;5059526;28;20224;-86
2022/01/02 04:06:44;;;;;;;7.28;4.30;;;11.50;99.90;;;;;;5059579;28;20340;-86
2022/01/02 04:09:10;;;;;;;8.00;4.65;;;11.50;99.90;;;;;;5059899;28;20197;-87
2022/01/02 04:11:36;;;;;;;10.02;4.65;;;11.50;99.90;;;;;;5059933;28;20194;-86
2022/01/02 04:14:02;;;;;;;5.13;4.03;;;11.60;99.90;;;;;;5059555;28;20210;-86
2022/01/02 04:16:27;;;;;;;6.47;4.18;;;11.50;99.90;;;;;;5057505;28;20336;-86
2022/01/02 04:18:53;;;;;;;9.00;4.80;;;11.50;99.90;;;;;;5058914;28;20542;-86
2022/01/02 04:21:19;;;;;;;4.90;4.00;;;11.50;99.90;;;;;;5057523;28;20202;-86
2022/01/02 04:23:45;;;;;;;8.85;4.45;;;11.40;99.90;;;;;;5057883;28;20553;-86
2022/01/02 04:26:10;;;;;;;7.37;4.37;;;11.40;99.90;;;;;;5057730;28;20222;-86
2022/01/02 04:28:36;;;;;;;7.90;4.20;;;11.30;99.90;;;;;;5059458;28;20170;-84
2022/01/02 04:31:02;;;;;;;7.20;4.53;;;11.30;99.90;;;;;;5059315;28;20207;-85
2022/01/02 04:33:27;;;;;;;8.67;5.03;;;11.30;99.90;;;;;;5058705;28;20659;-84
2022/01/02 04:35:53;;;;;;;6.45;4.38;;;11.20;99.90;;;;;;5060484;28;20194;-85
2022/01/02 04:38:20;;;;;;;7.40;4.50;;;11.20;99.90;;;;;;5059656;28;20225;-85
2022/01/02 04:40:48;;;;;;;7.28;4.57;;;11.10;99.90;;;;;;5059608;28;20186;-85
2022/01/02 04:43:14;;;;;;;8.25;4.88;;;11.10;99.90;;;;;;5059502;28;20190;-85
2022/01/02 04:45:40;;;;;;;8.87;4.53;;;11.10;99.90;;;;;;5059702;28;20178;-85
2022/01/02 04:48:05;;;;;;;7.10;4.53;;;11.10;99.90;;;;;;5059270;28;20182;-85
2022/01/02 04:50:31;;;;;;;6.97;4.57;;;11.10;99.90;;;;;;5059649;28;20206;-85
2022/01/02 04:52:57;;;;;;;8.50;4.82;;;11.10;99.90;;;;;;5055694;28;20175;-84
2022/01/02 04:55:23;;;;;;;7.25;4.55;;;11.10;99.90;;;;;;5055077;28;20534;-84
2022/01/02 04:57:49;;;;;;;13.80;5.30;;;11.10;99.90;;;;;;5054915;28;20224;-84
2022/01/02 05:00:15;;;;;;;9.30;4.80;;;11.20;99.90;;;;;;5054975;28;20187;-84
2022/01/02 05:02:40;;;;;;;8.38;4.50;;;11.20;99.90;;;;;;5054814;28;20186;-84
2022/01/02 05:05:07;;;;;;;8.05;4.82;;;11.20;99.90;;;;;;5054740;28;20638;-87
2022/01/02 05:07:32;;;;;;;8.37;5.13;;;11.10;99.90;;;;;;5054504;28;20229;-86
2022/01/02 05:09:59;;;;;;;9.30;5.43;;;11.10;99.90;;;;;;5054486;28;20639;-86
2022/01/02 05:12:25;;;;;;;8.95;5.10;;;11.10;99.90;;;;;;5054939;28;20178;-85
2022/01/02 05:14:51;;;;;;;7.90;5.00;;;11.10;99.90;;;;;;5054709;28;20232;-85
2022/01/02 05:17:17;;;;;;;8.50;4.70;;;11.00;99.90;;;;;;5054086;28;20575;-87
2022/01/02 05:19:43;;;;;;;7.30;4.90;;;11.00;99.90;;;;;;5054269;28;20174;-86
2022/01/02 05:22:08;;;;;;;10.35;5.07;;;10.90;99.90;;;;;;5055247;28;20175;-87
2022/01/02 05:24:34;;;;;;;9.57;5.53;;;10.90;99.90;;;;;;5055158;28;20174;-87
2022/01/02 05:27:00;;;;;;;11.67;5.10;;;10.80;99.90;;;;;;5054004;28;20224;-87
2022/01/02 05:29:25;;;;;;;9.90;5.73;;;10.80;99.90;;;;;;5053959;28;20585;-87
2022/01/02 05:31:51;;;;;;;9.98;5.20;;;10.80;99.90;;;;;;5054008;28;20709;-87
2022/01/02 05:34:17;;;;;;;8.23;5.13;;;10.80;99.90;;;;;;5053872;28;20549;-87
2022/01/02 05:36:48;;;;;;;8.95;4.80;;;10.80;99.90;;;;;;5054172;28;20264;-87
2022/01/02 05:39:19;;;;;;;8.00;4.72;;;10.80;99.90;;;;;;5053782;28;20167;-87
2022/01/02 05:41:46;;;;;;;9.73;5.63;;;10.80;99.90;;;;;;5053968;28;20167;-87
2022/01/02 05:44:12;;;;;;;7.47;4.97;;;10.80;99.90;;;;;;5054491;28;20290;-86
2022/01/02 05:46:39;;;;;;;11.10;5.40;;;10.80;99.90;;;;;;5055572;28;20198;-87
2022/01/02 05:49:05;;;;;;;7.90;5.22;;;10.80;99.90;;;;;;5055530;28;20246;-87
2022/01/02 05:51:31;;;;;;;8.07;4.88;;;10.80;99.90;;;;;;5053862;28;20759;-87
2022/01/02 05:53:57;;;;;;;6.90;4.80;;;10.90;99.90;;;;;;5055913;28;20175;-87
2022/01/02 05:56:22;;;;;;;7.37;4.93;;;10.80;99.90;;;;;;5054165;28;20207;-87
2022/01/02 05:58:48;;;;;;;7.33;4.70;;;10.90;99.90;;;;;;5054938;28;20171;-87
2022/01/02 06:01:14;;;;;;;7.90;5.68;;;10.80;99.90;;;;;;5053578;28;20190;-86
2022/01/02 06:03:39;;;;;;;13.73;5.27;;;10.70;99.90;;;;;;5055283;28;20252;-87
2022/01/02 06:06:05;;;;;;;8.50;5.03;;;10.70;99.90;;;;;;5054979;28;20550;-87
2022/01/02 06:08:31;;;;;;;8.13;5.03;;;10.70;99.90;;;;;;5053168;28;20187;-86
2022/01/02 06:10:57;;;;;;;9.67;5.77;;;10.70;99.90;;;;;;5052885;28;20284;-86
2022/01/02 06:13:23;;;;;;;13.25;5.13;;;10.70;99.90;;;;;;5052982;28;20183;-86
2022/01/02 06:15:49;;;;;;;10.48;5.32;;;10.70;99.90;;;;;;5052869;28;20230;-86
2022/01/02 06:18:14;;;;;;;12.17;5.07;;;10.70;99.90;;;;;;5052834;28;20269;-86
2022/01/02 06:20:40;;;;;;;6.88;4.93;;;10.70;99.90;;;;;;5052833;28;20609;-86
2022/01/02 06:23:06;;;;;;;8.27;5.43;;;10.70;99.90;;;;;;5053212;28;20182;-83
2022/01/02 06:25:33;;;;;;;8.23;4.87;;;10.60;99.90;;;;;;5053090;28;20290;-86
2022/01/02 06:27:59;;;;;;;8.00;4.47;;;10.60;99.90;;;;;;5053380;28;20339;-86
2022/01/02 06:30:25;;;;;;;11.53;5.57;;;10.60;99.90;;;;;;5053604;28;20214;-84
2022/01/02 06:32:55;;;;;;;12.00;5.63;;;10.60;99.90;;;;;;5053995;28;20182;-85
2022/01/02 06:35:38;;;;;;;7.87;4.70;;;10.60;99.90;;;;;;5059041;28;20174;-85
2022/01/02 06:38:18;;;;;;;13.13;5.27;;;10.60;99.90;;;;;;5063376;28;20182;-85
2022/01/02 06:40:43;;;;;;;6.80;4.73;;;10.60;99.90;;;;;;5058012;28;20650;-85
2022/01/02 06:43:09;;;;;;;8.07;5.30;;;10.60;99.90;;;;;;5057299;28;20178;-85
2022/01/02 06:45:36;;;;;;;9.93;4.90;;;10.60;99.90;;;;;;5054489;28;20603;-85
2022/01/02 06:48:03;;;;;;;10.40;5.47;;;10.60;99.90;;;;;;5055669;28;20174;-86
2022/01/02 06:50:29;;;;;;;9.57;5.30;;;10.50;99.90;;;;;;5054298;28;20674;-86
2022/01/02 06:52:55;;;;;;;12.57;5.53;;;10.50;99.90;;;;;;5054514;28;20679;-86
2022/01/02 06:55:21;;;;;;;8.90;5.83;;;10.50;99.90;;;;;;5054263;28;20206;-86
2022/01/02 06:57:46;;;;;;;7.50;5.07;;;10.50;99.90;;;;;;5053674;28;20202;-86
2022/01/02 07:00:12;;;;;;;11.43;5.43;;;10.50;99.90;;;;;;5053925;28;20179;-85
2022/01/02 07:02:38;;;;;;;11.30;5.57;;;10.40;99.90;;;;;;5052752;28;20675;-84
2022/01/02 07:05:04;;;;;;;14.23;6.00;;;10.40;99.90;;;;;;5052475;28;20207;-85
2022/01/02 07:07:30;;;;;;;8.57;5.13;;;10.40;99.90;;;;;;5053128;28;20203;-85
2022/01/02 07:09:56;;;;;;;6.50;4.97;;;10.40;99.90;;;;;;5054302;28;20277;-85
2022/01/02 07:12:23;;;;;;;10.37;5.33;;;10.40;99.90;;;;;;5056257;28;20216;-85
2022/01/02 07:14:52;;;;;;;8.33;5.10;;;10.30;99.90;;;;;;5056972;28;20548;-87
2022/01/02 07:17:18;;;;;;;7.30;5.05;;;10.30;99.90;;;;;;5056661;28;20233;-87
2022/01/02 07:19:44;;;;;;;9.33;5.37;;;10.30;99.90;;;;;;5056788;28;20189;-85
2022/01/02 07:22:09;;;;;;;8.48;5.88;;;10.30;99.90;;;;;;5056505;28;20183;-85
2022/01/02 07:24:35;;;;;;;8.50;5.57;;;10.20;99.90;;;;;;5057720;28;20175;-85
2022/01/02 07:27:01;;;;;;;9.73;4.87;;;10.20;99.90;;;;;;5056656;28;20214;-85
2022/01/02 07:29:27;;;;;;;9.65;5.22;;;10.20;99.90;;;;;;5056696;28;20194;-86
2022/01/02 07:31:52;;;;;;;7.88;5.68;;;10.20;99.90;;;;;;5056241;28;20682;-86
2022/01/02 07:34:18;;;;;;;7.50;5.23;;;10.20;99.90;;;;;;5057387;28;20179;-87
2022/01/02 07:36:44;;;;;;;7.73;5.53;;;10.20;99.90;;;;;;5058122;28;20198;-88
2022/01/02 07:39:14;;;;;;;9.17;5.30;;;10.20;99.90;;;;;;5057174;28;20175;-88
2022/01/02 07:41:41;;;;;;;6.55;4.97;;;10.10;99.90;;;;;;5056516;28;20281;-86
2022/01/02 07:44:07;;;;;;;8.82;5.10;;;10.10;99.90;;;;;;5057419;28;20241;-86
2022/01/02 07:46:34;;;;;;;10.20;5.10;;;10.10;99.90;;;;;;5056611;28;20496;-86
2022/01/02 07:49:00;;;;;;;11.35;5.32;;;10.10;99.90;;;;;;5055927;28;20180;-86
2022/01/02 07:51:26;;;;;;;7.13;5.00;;;10.10;99.90;;;;;;5055932;28;20202;-86
2022/01/02 07:53:51;;;;;;;10.30;4.97;;;10.20;99.90;;;;;;5057038;28;20538;-86
2022/01/02 07:56:21;;;;;;;8.53;4.83;;;10.20;99.90;;;;;;5057105;28;20218;-84
2022/01/02 07:58:47;;;;;;;10.20;5.30;;;10.30;99.90;;;;;;5057486;28;20155;-83
2022/01/02 08:01:13;;;;;;;9.30;4.78;;;10.30;99.90;;;;;;5057244;28;20182;-84
2022/01/02 08:03:39;;;;;;;12.17;5.60;;;10.40;99.90;;;;;;5056370;28;20179;-84
2022/01/02 08:06:05;;;;;;;12.07;5.23;;;10.40;99.90;;;;;;5056707;28;20266;-86
2022/01/02 08:08:30;;;;;;;12.73;5.50;;;10.40;99.90;;;;;;5056715;28;20220;-86
2022/01/02 08:10:56;;;;;;;10.50;5.40;;;10.50;99.90;;;;;;5056055;28;20635;-86
2022/01/02 08:13:22;;;;;;;7.97;4.87;;;10.60;99.90;;;;;;5056104;28;20666;-88
2022/01/02 08:15:49;;;;;;;13.57;5.37;;;10.60;99.90;;;;;;5056292;28;20569;-86
2022/01/02 08:18:15;;;;;;;8.43;4.67;;;10.60;99.90;;;;;;5056548;28;20182;-87
2022/01/02 08:20:45;;;;;;;9.13;5.10;;;10.60;99.90;;;;;;5058254;28;20562;-85
2022/01/02 08:23:14;;;;;;;6.30;5.10;;;10.70;99.90;;;;;;5054486;28;20620;-86
2022/01/02 08:25:39;;;;;;;13.57;5.37;;;10.70;99.90;;;;;;5055907;28;20194;-86
2022/01/02 08:28:05;;;;;;;14.13;4.70;;;10.70;99.90;;;;;;5055960;28;20182;-86
2022/01/02 08:30:31;;;;;;;8.30;4.63;;;10.70;99.90;;;;;;5055485;28;20194;-86
2022/01/02 08:32:57;;;;;;;11.47;4.80;;;10.70;99.90;;;;;;5055250;28;20190;-86
2022/01/02 08:35:24;;;;;;;8.63;4.83;;;10.80;99.90;;;;;;5055931;28;20159;-87
2022/01/02 08:37:50;;;;;;;8.70;5.27;;;10.80;99.90;;;;;;5057445;28;20159;-85
2022/01/02 08:40:16;;;;;;;10.47;5.33;;;10.90;99.90;;;;;;5056490;28;20165;-87
2022/01/02 08:42:41;;;;;;;6.90;4.13;;;11.00;99.90;;;;;;5056391;28;20171;-84
2022/01/02 08:45:07;;;;;;;13.23;5.30;;;11.00;99.90;;;;;;5056840;28;20185;-84
2022/01/02 08:47:33;;;;;;;9.47;4.33;;;11.30;99.90;;;;;;5056718;28;20225;-83
2022/01/02 08:49:59;;;;;;;9.55;4.32;;;11.40;99.90;;;;;;5057109;28;20257;-83
2022/01/02 08:52:25;;;;;;;11.05;4.80;;;11.40;99.90;;;;;;5057560;28;20198;-85
2022/01/02 08:54:51;;;;;;;10.70;4.60;;;11.30;99.90;;;;;;5055700;28;20657;-81
2022/01/02 08:57:17;;;;;;;14.30;4.90;;;11.30;99.90;;;;;;5056193;28;20190;-81
2022/01/02 08:59:43;;;;;;;8.45;4.32;;;11.40;99.90;;;;;;5055984;28;20171;-81
2022/01/02 09:02:09;;;;;;;11.68;4.75;;;11.30;99.90;;;;;;5062794;28;20200;-88
2022/01/02 09:04:35;;;;;;;11.87;4.83;;;11.30;99.90;;;;;;5060456;28;20647;-88
2022/01/02 09:07:01;;;;;;;9.05;4.38;;;11.40;99.90;;;;;;5059260;28;20263;-88
2022/01/02 09:09:29;;;;;;;8.98;4.38;;;11.40;99.90;;;;;;5059456;28;20174;-88
2022/01/02 09:11:55;;;;;;;4.77;4.13;;;11.30;99.90;;;;;;5058758;28;20289;-88
2022/01/02 09:14:20;;;;;;;8.32;4.88;;;11.20;99.90;;;;;;5058123;28;20599;-88
2022/01/02 09:16:46;;;;;;;7.10;4.68;;;11.20;99.90;;;;;;5059061;28;20194;-87
2022/01/02 09:19:13;;;;;;;12.27;4.65;;;11.10;99.90;;;;;;5059643;28;20247;-88
2022/01/02 09:21:38;;;;;;;9.17;4.50;;;11.00;99.90;;;;;;5058396;28;20186;-88
2022/01/02 09:24:05;;;;;;;5.20;4.28;;;11.00;99.90;;;;;;5058109;28;20193;-88
2022/01/02 09:26:31;;;;;;;6.13;4.40;;;11.00;99.90;;;;;;5058295;28;20218;-88
2022/01/02 09:28:57;;;;;;;5.85;3.83;;;11.10;99.90;;;;;;5058459;28;20186;-88
2022/01/02 09:31:23;;;;;;;5.50;4.17;;;11.10;99.90;;;;;;5057171;28;20670;-88
2022/01/02 09:33:49;;;;;;;7.15;3.80;;;11.20;99.90;;;;;;5057196;28;20174;-88
2022/01/02 09:36:15;;;;;;;6.77;3.80;;;11.30;99.90;;;;;;5057498;28;20262;-88
2022/01/02 09:38:42;;;;;;;5.20;4.00;;;11.40;99.90;;;;;;5056726;28;20181;-88
2022/01/02 09:41:08;;;;;;;6.30;3.70;;;11.40;99.90;;;;;;5057441;28;20241;-89
2022/01/02 09:43:34;;;;;;;4.30;3.87;;;11.30;99.90;;;;;;5057788;28;20191;-89
2022/01/02 09:46:02;;;;;;;4.10;3.80;;;11.30;99.90;;;;;;5056615;28;20288;-89
2022/01/02 09:48:29;;;;;;;5.88;3.92;;;11.30;99.90;;;;;;5058175;28;20174;-84
2022/01/02 09:50:56;;;;;;;4.23;3.83;;;11.40;99.90;;;;;;5057004;28;20211;-86
2022/01/02 09:53:22;;;;;;;3.73;3.43;;;11.50;99.90;;;;;;5057757;28;20265;-88
2022/01/02 09:56:06;;;;;;;4.70;3.70;;;11.60;99.90;;;;;;5060227;28;20220;-89
2022/01/02 09:58:34;;;;;;;4.37;3.97;;;11.60;99.90;;;;;;5071040;28;20246;-89
2022/01/02 10:01:00;;;;;;;7.97;3.60;;;11.70;99.90;;;;;;5066501;28;20178;-86
2022/01/02 10:03:26;;;;;;;4.30;3.80;;;11.70;99.90;;;;;;5058996;28;20628;-82
2022/01/02 10:06:01;;;;;;;3.83;3.50;;;11.70;99.90;;;;;;5059812;28;20259;-86
2022/01/02 10:08:36;;;;;;;3.92;3.55;;;11.70;99.90;;;;;;5058028;28;20532;-89
2022/01/02 10:11:15;;;;;;;3.88;3.45;;;11.70;99.90;;;;;;5058062;28;20206;-89
2022/01/02 10:13:53;;;;;;;4.85;3.72;;;11.70;99.90;;;;;;5057791;28;20638;-87
2022/01/02 10:16:26;;;;;;;5.18;4.20;;;11.60;99.90;;;;;;5055681;28;20198;-85
2022/01/02 10:22:57;;;;;;;4.20;3.70;;;11.60;99.90;;;;;;5045005;28;20239;-88
2022/01/02 10:25:43;;;;;;;4.40;4.00;;;11.50;99.90;;;;;;5054908;28;20189;-87
2022/01/02 10:28:41;;;;;;;4.82;4.10;;;11.60;99.90;;;;;;5055537;28;20186;-86
2022/01/02 10:31:15;;;;;;;5.18;3.88;;;11.60;99.90;;;;;;5039184;28;20693;-88
2022/01/02 10:33:51;;;;;;;4.53;4.03;;;11.60;99.90;;;;;;5057276;28;20178;-85
2022/01/02 10:36:30;;;;;;;7.50;4.18;;;11.60;99.90;;;;;;5057705;28;20200;-87
2022/01/02 10:39:20;;;;;;;4.97;4.00;;;11.60;99.90;;;;;;5056931;28;20269;-82
2022/01/02 10:41:48;;;;;;;4.90;4.13;;;11.70;99.90;;;;;;5057646;28;20178;-84
2022/01/02 10:44:28;;;;;;;6.37;4.03;;;11.60;99.90;;;;;;5059959;28;20179;-86
2022/01/02 10:47:17;;;;;;;5.18;3.78;;;11.50;99.90;;;;;;5060149;28;20685;-84
2022/01/02 10:50:07;;;;;;;4.65;3.90;;;11.50;99.90;;;;;;5060884;28;20189;-85
2022/01/02 10:52:46;;;;;;;4.97;4.00;;;11.50;99.90;;;;;;5050133;28;20222;-85
2022/01/02 10:55:21;;;;;;;5.20;4.35;;;11.50;99.90;;;;;;5059864;28;20178;-84
2022/01/02 10:57:49;;;;;;;4.65;3.97;;;11.50;99.90;;;;;;5060209;28;20268;-87
2022/01/02 11:00:20;;;;;;;5.63;4.05;;;11.60;99.90;;;;;;5060223;28;20178;-85
2022/01/02 11:02:46;;;;;;;4.17;3.77;;;11.70;99.90;;;;;;5064157;28;20205;-82
2022/01/02 11:05:14;;;;;;;5.47;4.05;;;11.80;99.90;;;;;;5060206;28;20588;-83
2022/01/02 11:07:46;;;;;;;4.97;4.20;;;11.80;99.90;;;;;;5059051;28;20209;-82
2022/01/02 11:10:19;;;;;;;5.32;4.40;;;11.80;99.90;;;;;;5058709;28;20175;-88
2022/01/02 11:12:47;;;;;;;6.35;4.15;;;11.80;99.90;;;;;;5060225;28;20576;-86
2022/01/02 11:15:17;;;;;;;6.73;4.30;;;11.90;99.90;;;;;;5061421;28;20170;-83
2022/01/02 11:17:44;;;;;;;7.13;4.20;;;11.90;99.90;;;;;;5059381;28;20190;-84
2022/01/02 11:20:21;;;;;;;4.18;3.78;;;11.90;99.90;;;;;;5058399;28;20175;-85
2022/01/02 11:23:12;;;;;;;6.55;4.68;;;11.90;99.90;;;;;;5056688;28;20228;-88
2022/01/02 11:26:15;;;;;;;7.13;4.55;;;11.90;99.90;;;;;;5058640;28;20273;-85
2022/01/02 11:28:46;;;;;;;6.97;4.60;;;11.90;99.90;;;;;;5059731;28;20174;-89
2022/01/02 11:31:30;;;;;;;5.15;4.50;;;12.00;99.90;;;;;;5059154;28;20194;-83
2022/01/02 11:33:56;;;;;;;5.50;4.43;;;12.00;99.90;;;;;;5058243;28;20512;-88
2022/01/02 11:36:23;;;;;;;5.20;4.50;;;12.00;99.90;;;;;;5058193;28;20323;-83
2022/01/02 11:39:16;;;;;;;7.18;4.50;;;12.00;99.90;;;;;;5058210;28;20608;-84
2022/01/02 11:41:44;;;;;;;7.47;4.10;;;12.10;99.90;;;;;;5055419;28;20190;-84
2022/01/02 11:44:18;;;;;;;5.80;4.55;;;12.10;99.90;;;;;;5058740;28;20577;-85
2022/01/02 11:46:48;;;;;;;5.90;4.70;;;12.10;99.90;;;;;;5059774;28;20206;-86
2022/01/02 11:49:17;;;;;;;4.88;4.25;;;12.20;99.90;;;;;;5060207;28;20178;-83
2022/01/02 11:51:51;;;;;;;5.75;4.65;;;12.20;99.90;;;;;;5060217;28;20732;-84
2022/01/02 11:57:00;;;;;;;7.10;4.63;;;12.30;99.90;;;;;;5061513;28;20205;-88
2022/01/02 11:59:44;;;;;;;7.70;4.53;;;12.30;99.90;;;;;;5058795;28;20205;-85
2022/01/02 12:02:13;;;;;;;6.22;4.45;;;12.30;99.90;;;;;;5063100;28;20597;-81
2022/01/02 12:07:36;;;;;;;7.50;5.00;;;12.30;99.90;;;;;;5060972;28;20262;-85
2022/01/02 12:10:14;;;;;;;8.43;4.90;;;12.30;99.90;;;;;;5058244;28;20673;-86
2022/01/02 12:13:25;;;;;;;7.43;5.15;;;12.30;99.90;;;;;;5057865;28;20562;-91
2022/01/02 12:16:02;;;;;;;6.30;4.50;;;12.30;99.90;;;;;;5058756;28;20267;-82
2022/01/02 12:18:31;;;;;;;7.47;5.45;;;12.30;99.90;;;;;;5057659;28;20179;-82
2022/01/02 12:20:57;;;;;;;8.70;4.75;;;12.40;99.90;;;;;;5057785;28;20179;-83
2022/01/02 12:23:32;;;;;;;6.68;4.90;;;12.40;99.90;;;;;;5056678;28;20232;-83
2022/01/02 12:26:00;;;;;;;6.63;4.82;;;12.30;99.90;;;;;;5056677;28;20217;-82
2022/01/02 12:28:37;;;;;;;6.72;5.20;;;12.40;99.90;;;;;;5057049;28;20186;-82
2022/01/02 12:31:04;;;;;;;8.00;5.30;;;12.40;99.90;;;;;;5056328;28;20555;-84
2022/01/02 12:33:30;;;;;;;6.45;4.97;;;12.40;99.90;;;;;;5057120;28;20270;-84
2022/01/02 12:35:57;;;;;;;8.50;5.60;;;12.40;99.90;;;;;;5056984;28;20282;-86
2022/01/02 12:38:22;;;;;;;8.73;5.30;;;12.40;99.90;;;;;;5055982;28;20538;-88
2022/01/02 12:40:53;;;;;;;9.05;5.10;;;12.40;99.90;;;;;;5058768;28;20167;-88
2022/01/02 12:43:25;;;;;;;6.65;4.70;;;12.40;99.90;;;;;;5056836;28;20646;-88
2022/01/02 12:45:54;;;;;;;7.43;4.83;;;12.40;99.90;;;;;;5056073;28;20559;-89
2022/01/02 12:48:34;;;;;;;5.78;4.93;;;12.50;99.90;;;;;;5057041;28;20178;-87
2022/01/02 12:51:12;;;;;;;10.55;5.10;;;12.40;99.90;;;;;;5058959;28;20198;-87
2022/01/02 12:53:39;;;;;;;10.05;5.50;;;12.40;99.90;;;;;;5059113;28;20190;-85
2022/01/02 12:56:04;;;;;;;7.78;4.80;;;12.40;99.90;;;;;;5058648;28;20252;-86
2022/01/02 12:58:31;;;;;;;5.43;4.50;;;12.40;99.90;;;;;;5057344;28;20535;-86
2022/01/02 13:01:04;;;;;;;10.70;4.70;;;12.40;99.90;;;;;;5057552;28;20155;-86
2022/01/02 13:03:30;;;;;;;8.43;4.53;;;12.40;99.90;;;;;;5059715;28;20193;-86
2022/01/02 13:05:56;;;;;;;6.80;4.63;;;12.30;99.90;;;;;;5057531;28;20206;-86
2022/01/02 13:08:24;;;;;;;7.90;4.72;;;12.30;99.90;;;;;;5055697;28;20183;-86
2022/01/02 13:10:50;;;;;;;6.70;4.63;;;12.30;99.90;;;;;;5056970;28;20691;-86
2022/01/02 13:13:30;;;;;;;6.38;4.65;;;12.30;99.90;;;;;;5056459;28;20174;-86